Menahga, Minnesota
Current Conditions -  °F | °C
As of 6:03 PM on Wednesday 28 Jan 2015 (Local Time) from KPKD Reporting Station
Haze Haze  
Wind Chill: 31°   Ceiling: 200
Heat Index: 31°   Visibility: 0.75mi
Dew Point: 31°   Wind: 3mph
Humidity: 100%   Direction: 250°WSW
Pressure: 29.79"   Gusts: NA
Location:  46.75°N, 95.1°W
Report Text: KPKD 290003Z AUTO 25003KT 3/4SM BR OVC002 M01/M01 A2979 RMK AO2 I1000 T10061006
Loading
Personal Weather Stations






























Interactive Weather Map New forecast layout! Learn more

10-Day Weather Forecast

Advertisements
Track Severe Weather on mobile